sensor_id;sensor_type;location;lat;lon;timestamp;temperature;humidity
20654;DHT22;21083;50.898;4.902;2023-06-26T00:00:25;24.90;99.90
20654;DHT22;21083;50.898;4.902;2023-06-26T00:02:53;24.90;99.90
20654;DHT22;21083;50.898;4.902;2023-06-26T00:05:20;25.00;99.90
20654;DHT22;21083;50.898;4.902;2023-06-26T00:07:47;25.10;99.90
20654;DHT22;21083;50.898;4.902;2023-06-26T00:10:14;25.00;99.90
20654;DHT22;21083;50.898;4.902;2023-06-26T00:12:42;24.70;99.90
20654;DHT22;21083;50.898;4.902;2023-06-26T00:15:09;24.90;99.90
20654;DHT22;21083;50.898;4.902;2023-06-26T00:17:37;25.20;99.90
20654;DHT22;21083;50.898;4.902;2023-06-26T00:20:07;25.10;99.90
20654;DHT22;21083;50.898;4.902;2023-06-26T00:22:35;25.20;99.90
20654;DHT22;21083;50.898;4.902;2023-06-26T00:25:06;25.20;99.90
20654;DHT22;21083;50.898;4.902;2023-06-26T00:27:33;25.00;99.90
20654;DHT22;21083;50.898;4.902;2023-06-26T00:30:00;25.00;99.90
20654;DHT22;21083;50.898;4.902;2023-06-26T00:32:27;24.90;99.90
20654;DHT22;21083;50.898;4.902;2023-06-26T00:34:54;24.70;99.90
20654;DHT22;21083;50.898;4.902;2023-06-26T00:37:22;24.40;99.90
20654;DHT22;21083;50.898;4.902;2023-06-26T00:39:49;24.30;99.90
20654;DHT22;21083;50.898;4.902;2023-06-26T00:42:16;24.30;99.90
20654;DHT22;21083;50.898;4.902;2023-06-26T00:44:42;24.40;99.90
20654;DHT22;21083;50.898;4.902;2023-06-26T00:47:10;24.30;99.90
20654;DHT22;21083;50.898;4.902;2023-06-26T00:49:39;24.30;99.90
20654;DHT22;21083;50.898;4.902;2023-06-26T00:52:06;24.50;99.90
20654;DHT22;21083;50.898;4.902;2023-06-26T00:54:35;24.20;99.90
20654;DHT22;21083;50.898;4.902;2023-06-26T00:57:03;23.90;99.90
20654;DHT22;21083;50.898;4.902;2023-06-26T00:59:30;23.80;99.90
20654;DHT22;21083;50.898;4.902;2023-06-26T01:01:57;23.70;99.90
20654;DHT22;21083;50.898;4.902;2023-06-26T01:04:23;23.70;99.90
20654;DHT22;21083;50.898;4.902;2023-06-26T01:06:54;23.60;99.90
20654;DHT22;21083;50.898;4.902;2023-06-26T01:09:22;23.70;99.90
20654;DHT22;21083;50.898;4.902;2023-06-26T01:11:51;24.00;99.90
20654;DHT22;21083;50.898;4.902;2023-06-26T01:14:18;24.00;99.90
20654;DHT22;21083;50.898;4.902;2023-06-26T01:16:46;24.20;99.90
20654;DHT22;21083;50.898;4.902;2023-06-26T01:19:19;24.10;99.90
20654;DHT22;21083;50.898;4.902;2023-06-26T01:21:54;24.10;99.90
20654;DHT22;21083;50.898;4.902;2023-06-26T01:24:22;24.00;99.90
20654;DHT22;21083;50.898;4.902;2023-06-26T01:26:54;23.90;99.90
20654;DHT22;21083;50.898;4.902;2023-06-26T01:29:22;23.70;99.90
20654;DHT22;21083;50.898;4.902;2023-06-26T01:31:50;23.70;99.90
20654;DHT22;21083;50.898;4.902;2023-06-26T01:34:17;23.60;99.90
20654;DHT22;21083;50.898;4.902;2023-06-26T01:36:45;23.40;99.90
20654;DHT22;21083;50.898;4.902;2023-06-26T01:39:15;23.20;99.90
20654;DHT22;21083;50.898;4.902;2023-06-26T01:41:42;23.20;99.90
20654;DHT22;21083;50.898;4.902;2023-06-26T01:44:21;23.20;99.90
20654;DHT22;21083;50.898;4.902;2023-06-26T01:46:58;23.10;99.90
20654;DHT22;21083;50.898;4.902;2023-06-26T01:49:33;22.70;99.90
20654;DHT22;21083;50.898;4.902;2023-06-26T01:52:07;22.80;99.90
20654;DHT22;21083;50.898;4.902;2023-06-26T01:54:39;22.70;99.90
20654;DHT22;21083;50.898;4.902;2023-06-26T01:57:09;22.70;99.90
20654;DHT22;21083;50.898;4.902;2023-06-26T01:59:40;22.80;99.90
20654;DHT22;21083;50.898;4.902;2023-06-26T02:02:08;22.80;99.90
20654;DHT22;21083;50.898;4.902;2023-06-26T02:04:35;22.60;99.90
20654;DHT22;21083;50.898;4.902;2023-06-26T02:07:03;22.30;99.90
20654;DHT22;21083;50.898;4.902;2023-06-26T02:09:30;21.90;99.90
20654;DHT22;21083;50.898;4.902;2023-06-26T02:11:57;21.80;99.90
20654;DHT22;21083;50.898;4.902;2023-06-26T02:14:24;21.90;99.90
20654;DHT22;21083;50.898;4.902;2023-06-26T02:16:52;22.10;99.90
20654;DHT22;21083;50.898;4.902;2023-06-26T02:19:19;21.90;99.90
20654;DHT22;21083;50.898;4.902;2023-06-26T02:21:47;22.30;99.90
20654;DHT22;21083;50.898;4.902;2023-06-26T02:24:14;22.40;99.90
20654;DHT22;21083;50.898;4.902;2023-06-26T02:26:41;22.50;99.90
20654;DHT22;21083;50.898;4.902;2023-06-26T02:29:08;22.30;99.90
20654;DHT22;21083;50.898;4.902;2023-06-26T02:31:35;22.40;99.90
20654;DHT22;21083;50.898;4.902;2023-06-26T02:34:04;22.30;99.90
20654;DHT22;21083;50.898;4.902;2023-06-26T02:36:31;22.20;99.90
20654;DHT22;21083;50.898;4.902;2023-06-26T02:38:57;22.20;99.90
20654;DHT22;21083;50.898;4.902;2023-06-26T02:41:24;22.20;99.90
20654;DHT22;21083;50.898;4.902;2023-06-26T02:43:51;22.20;99.90
20654;DHT22;21083;50.898;4.902;2023-06-26T02:46:18;22.10;99.90
20654;DHT22;21083;50.898;4.902;2023-06-26T02:48:45;22.00;99.90
20654;DHT22;21083;50.898;4.902;2023-06-26T02:51:13;21.80;99.90
20654;DHT22;21083;50.898;4.902;2023-06-26T02:53:40;21.80;99.90
20654;DHT22;21083;50.898;4.902;2023-06-26T02:56:07;21.80;99.90
20654;DHT22;21083;50.898;4.902;2023-06-26T02:58:34;21.60;99.90
20654;DHT22;21083;50.898;4.902;2023-06-26T03:01:01;21.60;99.90
20654;DHT22;21083;50.898;4.902;2023-06-26T03:03:28;21.70;99.90
20654;DHT22;21083;50.898;4.902;2023-06-26T03:05:55;21.70;99.90
20654;DHT22;21083;50.898;4.902;2023-06-26T03:08:23;21.70;99.90
20654;DHT22;21083;50.898;4.902;2023-06-26T03:10:50;21.70;99.90
20654;DHT22;21083;50.898;4.902;2023-06-26T03:13:17;21.60;99.90
20654;DHT22;21083;50.898;4.902;2023-06-26T03:15:44;21.60;99.90
20654;DHT22;21083;50.898;4.902;2023-06-26T03:18:11;21.60;99.90
20654;DHT22;21083;50.898;4.902;2023-06-26T03:20:38;21.60;99.90
20654;DHT22;21083;50.898;4.902;2023-06-26T03:23:05;21.50;99.90
20654;DHT22;21083;50.898;4.902;2023-06-26T03:25:33;21.40;99.90
20654;DHT22;21083;50.898;4.902;2023-06-26T03:28:00;21.40;99.90
20654;DHT22;21083;50.898;4.902;2023-06-26T03:30:27;21.50;99.90
20654;DHT22;21083;50.898;4.902;2023-06-26T03:32:54;21.60;99.90
20654;DHT22;21083;50.898;4.902;2023-06-26T03:35:21;21.60;99.90
20654;DHT22;21083;50.898;4.902;2023-06-26T03:37:49;21.50;99.90
20654;DHT22;21083;50.898;4.902;2023-06-26T03:40:16;21.30;99.90
20654;DHT22;21083;50.898;4.902;2023-06-26T03:42:45;21.40;99.90
20654;DHT22;21083;50.898;4.902;2023-06-26T03:45:12;21.10;99.90
20654;DHT22;21083;50.898;4.902;2023-06-26T03:47:39;21.10;99.90
20654;DHT22;21083;50.898;4.902;2023-06-26T03:50:07;21.10;99.90
20654;DHT22;21083;50.898;4.902;2023-06-26T03:52:35;21.10;99.90
20654;DHT22;21083;50.898;4.902;2023-06-26T03:55:01;21.10;99.90
20654;DHT22;21083;50.898;4.902;2023-06-26T03:57:29;21.10;99.90
20654;DHT22;21083;50.898;4.902;2023-06-26T03:59:57;21.00;99.90
20654;DHT22;21083;50.898;4.902;2023-06-26T04:02:24;20.80;99.90
20654;DHT22;21083;50.898;4.902;2023-06-26T04:04:51;20.80;99.90
20654;DHT22;21083;50.898;4.902;2023-06-26T04:07:18;20.50;99.90
20654;DHT22;21083;50.898;4.902;2023-06-26T04:09:45;20.50;99.90
20654;DHT22;21083;50.898;4.902;2023-06-26T04:12:12;20.40;99.90
20654;DHT22;21083;50.898;4.902;2023-06-26T04:14:39;20.40;99.90
20654;DHT22;21083;50.898;4.902;2023-06-26T04:17:07;20.50;99.90
20654;DHT22;21083;50.898;4.902;2023-06-26T04:19:34;20.50;99.90
20654;DHT22;21083;50.898;4.902;2023-06-26T04:22:02;20.40;99.90
20654;DHT22;21083;50.898;4.902;2023-06-26T04:24:29;20.40;99.90
20654;DHT22;21083;50.898;4.902;2023-06-26T04:26:56;20.30;99.90
20654;DHT22;21083;50.898;4.902;2023-06-26T04:29:23;20.50;99.90
20654;DHT22;21083;50.898;4.902;2023-06-26T04:31:51;20.40;99.90
20654;DHT22;21083;50.898;4.902;2023-06-26T04:34:19;20.50;99.90
20654;DHT22;21083;50.898;4.902;2023-06-26T04:36:46;20.30;99.90
20654;DHT22;21083;50.898;4.902;2023-06-26T04:39:13;20.30;99.90
20654;DHT22;21083;50.898;4.902;2023-06-26T04:41:41;20.50;99.90
20654;DHT22;21083;50.898;4.902;2023-06-26T04:44:08;20.40;99.90
20654;DHT22;21083;50.898;4.902;2023-06-26T04:46:36;20.50;99.90
20654;DHT22;21083;50.898;4.902;2023-06-26T04:49:03;20.30;99.90
20654;DHT22;21083;50.898;4.902;2023-06-26T04:51:31;20.30;99.90
20654;DHT22;21083;50.898;4.902;2023-06-26T04:53:58;20.30;99.90
20654;DHT22;21083;50.898;4.902;2023-06-26T04:56:25;20.30;99.90
20654;DHT22;21083;50.898;4.902;2023-06-26T04:58:52;20.20;99.90
20654;DHT22;21083;50.898;4.902;2023-06-26T05:01:18;20.10;99.90
20654;DHT22;21083;50.898;4.902;2023-06-26T05:03:45;20.20;99.90
20654;DHT22;21083;50.898;4.902;2023-06-26T05:06:13;20.00;99.90
20654;DHT22;21083;50.898;4.902;2023-06-26T05:08:41;20.10;99.90
20654;DHT22;21083;50.898;4.902;2023-06-26T05:11:08;19.90;99.90
20654;DHT22;21083;50.898;4.902;2023-06-26T05:13:35;19.90;99.90
20654;DHT22;21083;50.898;4.902;2023-06-26T05:16:02;19.90;99.90
20654;DHT22;21083;50.898;4.902;2023-06-26T05:18:29;19.80;99.90
20654;DHT22;21083;50.898;4.902;2023-06-26T05:20:56;19.80;99.90
20654;DHT22;21083;50.898;4.902;2023-06-26T05:23:25;20.20;99.90
20654;DHT22;21083;50.898;4.902;2023-06-26T05:25:54;20.00;99.90
20654;DHT22;21083;50.898;4.902;2023-06-26T05:28:22;20.10;99.90
20654;DHT22;21083;50.898;4.902;2023-06-26T05:30:50;20.00;99.90
20654;DHT22;21083;50.898;4.902;2023-06-26T05:33:18;20.10;99.90
20654;DHT22;21083;50.898;4.902;2023-06-26T05:35:46;20.10;99.90
20654;DHT22;21083;50.898;4.902;2023-06-26T05:38:15;19.90;99.90
20654;DHT22;21083;50.898;4.902;2023-06-26T05:40:42;19.80;99.90
20654;DHT22;21083;50.898;4.902;2023-06-26T05:43:11;19.90;99.90
20654;DHT22;21083;50.898;4.902;2023-06-26T05:45:38;20.10;99.90
20654;DHT22;21083;50.898;4.902;2023-06-26T05:48:05;20.20;99.90
20654;DHT22;21083;50.898;4.902;2023-06-26T05:50:33;20.20;99.90
20654;DHT22;21083;50.898;4.902;2023-06-26T05:53:00;20.10;99.90
20654;DHT22;21083;50.898;4.902;2023-06-26T05:55:29;20.10;99.90
20654;DHT22;21083;50.898;4.902;2023-06-26T05:57:58;19.70;99.90
20654;DHT22;21083;50.898;4.902;2023-06-26T06:00:28;19.60;99.90
20654;DHT22;21083;50.898;4.902;2023-06-26T06:02:55;20.00;99.90
20654;DHT22;21083;50.898;4.902;2023-06-26T06:05:22;20.10;99.90
20654;DHT22;21083;50.898;4.902;2023-06-26T06:07:49;20.30;99.90
20654;DHT22;21083;50.898;4.902;2023-06-26T06:10:16;20.40;99.90
20654;DHT22;21083;50.898;4.902;2023-06-26T06:12:43;20.30;99.90
20654;DHT22;21083;50.898;4.902;2023-06-26T06:15:10;20.40;99.90
20654;DHT22;21083;50.898;4.902;2023-06-26T06:17:38;20.20;99.90
20654;DHT22;21083;50.898;4.902;2023-06-26T06:20:06;20.10;99.90
20654;DHT22;21083;50.898;4.902;2023-06-26T06:22:33;20.10;99.90
20654;DHT22;21083;50.898;4.902;2023-06-26T06:25:00;20.10;99.90
20654;DHT22;21083;50.898;4.902;2023-06-26T06:27:27;20.50;99.90
20654;DHT22;21083;50.898;4.902;2023-06-26T06:29:54;20.60;99.90
20654;DHT22;21083;50.898;4.902;2023-06-26T06:32:21;20.70;99.90
20654;DHT22;21083;50.898;4.902;2023-06-26T06:34:49;20.90;99.90
20654;DHT22;21083;50.898;4.902;2023-06-26T06:37:16;20.80;99.90
20654;DHT22;21083;50.898;4.902;2023-06-26T06:39:43;20.90;99.90
20654;DHT22;21083;50.898;4.902;2023-06-26T06:42:10;20.90;99.90
20654;DHT22;21083;50.898;4.902;2023-06-26T06:44:37;20.80;99.90
20654;DHT22;21083;50.898;4.902;2023-06-26T06:47:04;21.10;99.90
20654;DHT22;21083;50.898;4.902;2023-06-26T06:49:31;20.90;99.90
20654;DHT22;21083;50.898;4.902;2023-06-26T06:51:59;20.90;99.90
20654;DHT22;21083;50.898;4.902;2023-06-26T06:54:26;20.80;99.90
20654;DHT22;21083;50.898;4.902;2023-06-26T06:56:53;21.10;99.90
20654;DHT22;21083;50.898;4.902;2023-06-26T06:59:20;21.10;99.90
20654;DHT22;21083;50.898;4.902;2023-06-26T07:01:47;21.10;99.90
20654;DHT22;21083;50.898;4.902;2023-06-26T07:04:14;21.20;99.90
20654;DHT22;21083;50.898;4.902;2023-06-26T07:06:41;21.30;99.90
20654;DHT22;21083;50.898;4.902;2023-06-26T07:09:09;21.30;99.90
20654;DHT22;21083;50.898;4.902;2023-06-26T07:11:36;21.40;99.90
20654;DHT22;21083;50.898;4.902;2023-06-26T07:14:03;21.50;99.90
20654;DHT22;21083;50.898;4.902;2023-06-26T07:16:30;21.40;99.90
20654;DHT22;21083;50.898;4.902;2023-06-26T07:18:57;21.40;99.90
20654;DHT22;21083;50.898;4.902;2023-06-26T07:21:24;21.30;99.90
20654;DHT22;21083;50.898;4.902;2023-06-26T07:23:51;21.40;99.90
20654;DHT22;21083;50.898;4.902;2023-06-26T07:26:19;21.50;99.90
20654;DHT22;21083;50.898;4.902;2023-06-26T07:28:48;21.60;99.90
20654;DHT22;21083;50.898;4.902;2023-06-26T07:31:15;21.50;99.90
20654;DHT22;21083;50.898;4.902;2023-06-26T07:33:43;21.30;99.90
20654;DHT22;21083;50.898;4.902;2023-06-26T07:36:10;21.30;99.90
20654;DHT22;21083;50.898;4.902;2023-06-26T07:38:37;21.40;99.90
20654;DHT22;21083;50.898;4.902;2023-06-26T07:41:03;21.50;99.90
20654;DHT22;21083;50.898;4.902;2023-06-26T07:43:32;21.70;99.90
20654;DHT22;21083;50.898;4.902;2023-06-26T07:45:59;21.70;99.90
20654;DHT22;21083;50.898;4.902;2023-06-26T07:48:26;21.80;99.90
20654;DHT22;21083;50.898;4.902;2023-06-26T07:50:53;21.90;99.90
20654;DHT22;21083;50.898;4.902;2023-06-26T07:53:20;21.90;99.90
20654;DHT22;21083;50.898;4.902;2023-06-26T07:55:47;21.90;99.90
20654;DHT22;21083;50.898;4.902;2023-06-26T07:58:14;21.90;99.90
20654;DHT22;21083;50.898;4.902;2023-06-26T08:00:42;21.90;99.90
20654;DHT22;21083;50.898;4.902;2023-06-26T08:03:09;22.10;99.90
20654;DHT22;21083;50.898;4.902;2023-06-26T08:05:36;22.20;99.90
20654;DHT22;21083;50.898;4.902;2023-06-26T08:08:03;22.20;99.90
20654;DHT22;21083;50.898;4.902;2023-06-26T08:10:30;22.20;99.90
20654;DHT22;21083;50.898;4.902;2023-06-26T08:12:57;22.10;99.90
20654;DHT22;21083;50.898;4.902;2023-06-26T08:15:24;22.40;99.90
20654;DHT22;21083;50.898;4.902;2023-06-26T08:17:52;22.60;99.90
20654;DHT22;21083;50.898;4.902;2023-06-26T08:20:19;22.40;99.90
20654;DHT22;21083;50.898;4.902;2023-06-26T08:22:46;22.50;99.90
20654;DHT22;21083;50.898;4.902;2023-06-26T08:25:14;22.60;99.90
20654;DHT22;21083;50.898;4.902;2023-06-26T08:27:41;22.70;99.90
20654;DHT22;21083;50.898;4.902;2023-06-26T08:30:09;22.70;99.90
20654;DHT22;21083;50.898;4.902;2023-06-26T08:32:36;22.40;99.90
20654;DHT22;21083;50.898;4.902;2023-06-26T08:35:06;22.70;99.90
20654;DHT22;21083;50.898;4.902;2023-06-26T08:37:35;22.90;99.90
20654;DHT22;21083;50.898;4.902;2023-06-26T08:40:03;22.60;99.90
20654;DHT22;21083;50.898;4.902;2023-06-26T08:42:30;22.70;99.90
20654;DHT22;21083;50.898;4.902;2023-06-26T08:44:57;23.00;99.90
20654;DHT22;21083;50.898;4.902;2023-06-26T08:47:24;23.20;99.90
20654;DHT22;21083;50.898;4.902;2023-06-26T08:50:03;23.10;99.90
20654;DHT22;21083;50.898;4.902;2023-06-26T08:52:36;23.30;99.90
20654;DHT22;21083;50.898;4.902;2023-06-26T08:55:08;23.40;99.90
20654;DHT22;21083;50.898;4.902;2023-06-26T08:57:36;23.30;99.90
20654;DHT22;21083;50.898;4.902;2023-06-26T09:00:04;22.90;99.90
20654;DHT22;21083;50.898;4.902;2023-06-26T09:02:34;22.80;99.90
20654;DHT22;21083;50.898;4.902;2023-06-26T09:05:02;23.10;99.90
20654;DHT22;21083;50.898;4.902;2023-06-26T09:07:29;23.40;99.90
20654;DHT22;21083;50.898;4.902;2023-06-26T09:09:58;23.50;99.90
20654;DHT22;21083;50.898;4.902;2023-06-26T09:12:27;23.60;99.90
20654;DHT22;21083;50.898;4.902;2023-06-26T09:14:55;23.70;99.90
20654;DHT22;21083;50.898;4.902;2023-06-26T09:17:24;23.50;99.90
20654;DHT22;21083;50.898;4.902;2023-06-26T09:19:52;23.70;99.90
20654;DHT22;21083;50.898;4.902;2023-06-26T09:22:19;23.80;99.90
20654;DHT22;21083;50.898;4.902;2023-06-26T09:24:47;23.90;99.90
20654;DHT22;21083;50.898;4.902;2023-06-26T09:27:16;23.90;99.90
20654;DHT22;21083;50.898;4.902;2023-06-26T09:29:45;23.80;99.90
20654;DHT22;21083;50.898;4.902;2023-06-26T09:32:13;24.10;99.90
20654;DHT22;21083;50.898;4.902;2023-06-26T09:34:41;24.00;99.90
20654;DHT22;21083;50.898;4.902;2023-06-26T09:37:11;24.10;99.90
20654;DHT22;21083;50.898;4.902;2023-06-26T09:39:38;24.20;99.90
20654;DHT22;21083;50.898;4.902;2023-06-26T09:42:05;24.30;99.90
20654;DHT22;21083;50.898;4.902;2023-06-26T09:44:34;24.30;99.90
20654;DHT22;21083;50.898;4.902;2023-06-26T09:47:01;23.90;99.90
20654;DHT22;21083;50.898;4.902;2023-06-26T09:49:29;24.00;99.90
20654;DHT22;21083;50.898;4.902;2023-06-26T09:52:00;24.20;99.90
20654;DHT22;21083;50.898;4.902;2023-06-26T09:54:27;24.50;99.90
20654;DHT22;21083;50.898;4.902;2023-06-26T09:56:55;24.50;99.90
20654;DHT22;21083;50.898;4.902;2023-06-26T09:59:23;24.30;99.90
20654;DHT22;21083;50.898;4.902;2023-06-26T10:01:58;24.30;99.90
20654;DHT22;21083;50.898;4.902;2023-06-26T10:04:25;24.10;99.90
20654;DHT22;21083;50.898;4.902;2023-06-26T10:06:55;24.10;99.90
20654;DHT22;21083;50.898;4.902;2023-06-26T10:09:23;24.00;99.90
20654;DHT22;21083;50.898;4.902;2023-06-26T10:11:55;24.00;99.90
20654;DHT22;21083;50.898;4.902;2023-06-26T10:14:27;23.90;99.90
20654;DHT22;21083;50.898;4.902;2023-06-26T10:16:58;23.70;99.90
20654;DHT22;21083;50.898;4.902;2023-06-26T10:19:27;23.90;99.90
20654;DHT22;21083;50.898;4.902;2023-06-26T10:21:55;24.20;99.90
20654;DHT22;21083;50.898;4.902;2023-06-26T10:24:23;24.30;99.90
20654;DHT22;21083;50.898;4.902;2023-06-26T10:26:54;24.50;99.90
20654;DHT22;21083;50.898;4.902;2023-06-26T10:29:24;24.80;99.90
20654;DHT22;21083;50.898;4.902;2023-06-26T10:31:57;25.10;99.90
20654;DHT22;21083;50.898;4.902;2023-06-26T10:34:26;25.10;99.90
20654;DHT22;21083;50.898;4.902;2023-06-26T10:36:59;25.00;99.90
20654;DHT22;21083;50.898;4.902;2023-06-26T10:39:26;24.80;99.90
20654;DHT22;21083;50.898;4.902;2023-06-26T10:41:54;24.50;99.90
20654;DHT22;21083;50.898;4.902;2023-06-26T10:44:22;24.40;99.90
20654;DHT22;21083;50.898;4.902;2023-06-26T10:46:50;24.20;99.90
20654;DHT22;21083;50.898;4.902;2023-06-26T10:49:20;24.60;99.90
20654;DHT22;21083;50.898;4.902;2023-06-26T10:51:48;24.50;99.90
20654;DHT22;21083;50.898;4.902;2023-06-26T10:54:16;24.40;99.90
20654;DHT22;21083;50.898;4.902;2023-06-26T10:56:45;24.30;99.90
20654;DHT22;21083;50.898;4.902;2023-06-26T10:59:16;24.40;99.90
20654;DHT22;21083;50.898;4.902;2023-06-26T11:01:44;24.10;99.90
20654;DHT22;21083;50.898;4.902;2023-06-26T11:04:13;24.20;99.90
20654;DHT22;21083;50.898;4.902;2023-06-26T11:06:45;24.30;99.90
20654;DHT22;21083;50.898;4.902;2023-06-26T11:09:17;24.60;99.90
20654;DHT22;21083;50.898;4.902;2023-06-26T11:11:57;24.70;99.90
20654;DHT22;21083;50.898;4.902;2023-06-26T11:14:34;25.20;99.90
20654;DHT22;21083;50.898;4.902;2023-06-26T11:17:05;25.00;99.90
20654;DHT22;21083;50.898;4.902;2023-06-26T11:19:32;25.10;99.90
20654;DHT22;21083;50.898;4.902;2023-06-26T11:22:04;24.80;99.90
20654;DHT22;21083;50.898;4.902;2023-06-26T11:24:31;25.00;99.90
20654;DHT22;21083;50.898;4.902;2023-06-26T11:27:03;25.20;99.90
20654;DHT22;21083;50.898;4.902;2023-06-26T11:29:31;25.40;99.90
20654;DHT22;21083;50.898;4.902;2023-06-26T11:32:00;25.40;99.90
20654;DHT22;21083;50.898;4.902;2023-06-26T11:34:30;25.60;99.90
20654;DHT22;21083;50.898;4.902;2023-06-26T11:36:57;25.40;99.90
20654;DHT22;21083;50.898;4.902;2023-06-26T11:39:28;25.80;99.90
20654;DHT22;21083;50.898;4.902;2023-06-26T11:41:55;25.30;99.90
20654;DHT22;21083;50.898;4.902;2023-06-26T11:44:22;25.70;99.90
20654;DHT22;21083;50.898;4.902;2023-06-26T11:46:52;25.90;99.90
20654;DHT22;21083;50.898;4.902;2023-06-26T11:49:21;25.70;99.90
20654;DHT22;21083;50.898;4.902;2023-06-26T11:51:49;25.40;99.90
20654;DHT22;21083;50.898;4.902;2023-06-26T11:54:22;25.20;99.90
20654;DHT22;21083;50.898;4.902;2023-06-26T11:56:54;25.10;99.90
20654;DHT22;21083;50.898;4.902;2023-06-26T11:59:22;25.40;99.90
20654;DHT22;21083;50.898;4.902;2023-06-26T12:01:50;25.80;99.90
20654;DHT22;21083;50.898;4.902;2023-06-26T12:04:18;26.00;99.90
20654;DHT22;21083;50.898;4.902;2023-06-26T12:06:47;26.10;99.90
20654;DHT22;21083;50.898;4.902;2023-06-26T12:09:14;26.10;99.90
20654;DHT22;21083;50.898;4.902;2023-06-26T12:11:43;25.70;99.90
20654;DHT22;21083;50.898;4.902;2023-06-26T12:14:12;25.60;99.90
20654;DHT22;21083;50.898;4.902;2023-06-26T12:16:39;25.60;99.90
20654;DHT22;21083;50.898;4.902;2023-06-26T12:19:07;25.30;99.90
20654;DHT22;21083;50.898;4.902;2023-06-26T12:21:46;25.20;99.90
20654;DHT22;21083;50.898;4.902;2023-06-26T12:24:15;25.60;99.90
20654;DHT22;21083;50.898;4.902;2023-06-26T12:26:43;25.80;99.90
20654;DHT22;21083;50.898;4.902;2023-06-26T12:29:13;25.70;99.90
20654;DHT22;21083;50.898;4.902;2023-06-26T12:31:40;25.30;99.90
20654;DHT22;21083;50.898;4.902;2023-06-26T12:34:12;24.90;99.90
20654;DHT22;21083;50.898;4.902;2023-06-26T12:36:40;25.00;99.90
20654;DHT22;21083;50.898;4.902;2023-06-26T12:39:10;24.70;99.90
20654;DHT22;21083;50.898;4.902;2023-06-26T12:41:48;25.10;99.90
20654;DHT22;21083;50.898;4.902;2023-06-26T12:44:20;25.40;99.90
20654;DHT22;21083;50.898;4.902;2023-06-26T12:46:48;25.20;99.90
20654;DHT22;21083;50.898;4.902;2023-06-26T12:49:16;25.00;99.90
20654;DHT22;21083;50.898;4.902;2023-06-26T12:51:43;24.70;99.90
20654;DHT22;21083;50.898;4.902;2023-06-26T12:54:10;24.60;99.90
20654;DHT22;21083;50.898;4.902;2023-06-26T12:56:37;24.70;99.90
20654;DHT22;21083;50.898;4.902;2023-06-26T12:59:04;24.90;99.90
20654;DHT22;21083;50.898;4.902;2023-06-26T13:01:32;24.80;99.90
20654;DHT22;21083;50.898;4.902;2023-06-26T13:03:59;25.20;99.90
20654;DHT22;21083;50.898;4.902;2023-06-26T13:06:26;25.40;99.90
20654;DHT22;21083;50.898;4.902;2023-06-26T13:08:53;25.40;99.90
20654;DHT22;21083;50.898;4.902;2023-06-26T13:11:20;25.40;99.90
20654;DHT22;21083;50.898;4.902;2023-06-26T13:13:48;25.80;99.90
20654;DHT22;21083;50.898;4.902;2023-06-26T13:16:15;26.20;99.90
20654;DHT22;21083;50.898;4.902;2023-06-26T13:18:45;26.30;99.90
20654;DHT22;21083;50.898;4.902;2023-06-26T13:21:12;26.40;99.90
20654;DHT22;21083;50.898;4.902;2023-06-26T13:23:39;26.60;99.90
20654;DHT22;21083;50.898;4.902;2023-06-26T13:26:06;27.00;99.90
20654;DHT22;21083;50.898;4.902;2023-06-26T13:28:33;26.60;99.90
20654;DHT22;21083;50.898;4.902;2023-06-26T13:31:00;26.00;99.90
20654;DHT22;21083;50.898;4.902;2023-06-26T13:33:27;26.00;99.90
20654;DHT22;21083;50.898;4.902;2023-06-26T13:35:55;26.30;99.90
20654;DHT22;21083;50.898;4.902;2023-06-26T13:38:23;26.40;99.90
20654;DHT22;21083;50.898;4.902;2023-06-26T13:40:51;26.80;99.90
20654;DHT22;21083;50.898;4.902;2023-06-26T13:43:20;26.70;99.90
20654;DHT22;21083;50.898;4.902;2023-06-26T13:45:47;27.00;99.90
20654;DHT22;21083;50.898;4.902;2023-06-26T13:48:14;27.20;99.90
20654;DHT22;21083;50.898;4.902;2023-06-26T13:50:41;27.50;99.90
20654;DHT22;21083;50.898;4.902;2023-06-26T13:53:09;27.70;99.90
20654;DHT22;21083;50.898;4.902;2023-06-26T13:55:36;27.90;99.90
20654;DHT22;21083;50.898;4.902;2023-06-26T13:58:03;27.70;99.90
20654;DHT22;21083;50.898;4.902;2023-06-26T14:00:31;27.70;99.90
20654;DHT22;21083;50.898;4.902;2023-06-26T14:02:59;27.30;99.90
20654;DHT22;21083;50.898;4.902;2023-06-26T14:05:26;26.80;99.90
20654;DHT22;21083;50.898;4.902;2023-06-26T14:07:53;26.70;99.90
20654;DHT22;21083;50.898;4.902;2023-06-26T14:10:22;26.20;99.90
20654;DHT22;21083;50.898;4.902;2023-06-26T14:12:49;26.20;99.90
20654;DHT22;21083;50.898;4.902;2023-06-26T14:15:16;26.60;99.90
20654;DHT22;21083;50.898;4.902;2023-06-26T14:17:43;26.90;99.90
20654;DHT22;21083;50.898;4.902;2023-06-26T14:20:11;27.00;99.90
20654;DHT22;21083;50.898;4.902;2023-06-26T14:22:39;27.30;99.90
20654;DHT22;21083;50.898;4.902;2023-06-26T14:25:06;27.60;99.90
20654;DHT22;21083;50.898;4.902;2023-06-26T14:27:35;27.50;99.90
20654;DHT22;21083;50.898;4.902;2023-06-26T14:30:03;27.30;99.90
20654;DHT22;21083;50.898;4.902;2023-06-26T14:32:30;27.20;99.90
20654;DHT22;21083;50.898;4.902;2023-06-26T14:34:58;27.40;99.90
20654;DHT22;21083;50.898;4.902;2023-06-26T14:37:25;27.10;99.90
20654;DHT22;21083;50.898;4.902;2023-06-26T14:39:52;27.10;99.90
20654;DHT22;21083;50.898;4.902;2023-06-26T14:42:19;27.30;99.90
20654;DHT22;21083;50.898;4.902;2023-06-26T14:44:47;27.00;99.90
20654;DHT22;21083;50.898;4.902;2023-06-26T14:47:16;26.80;99.90
20654;DHT22;21083;50.898;4.902;2023-06-26T14:49:43;26.80;99.90
20654;DHT22;21083;50.898;4.902;2023-06-26T14:52:10;26.80;99.90
20654;DHT22;21083;50.898;4.902;2023-06-26T14:54:37;27.20;99.90
20654;DHT22;21083;50.898;4.902;2023-06-26T14:57:06;27.20;99.90
20654;DHT22;21083;50.898;4.902;2023-06-26T14:59:33;27.30;99.90
20654;DHT22;21083;50.898;4.902;2023-06-26T15:02:01;27.30;99.90
20654;DHT22;21083;50.898;4.902;2023-06-26T15:04:28;27.00;99.90
20654;DHT22;21083;50.898;4.902;2023-06-26T15:06:57;27.00;99.90
20654;DHT22;21083;50.898;4.902;2023-06-26T15:09:24;27.00;99.90
20654;DHT22;21083;50.898;4.902;2023-06-26T15:11:51;27.20;99.90
20654;DHT22;21083;50.898;4.902;2023-06-26T15:14:18;27.30;99.90
20654;DHT22;21083;50.898;4.902;2023-06-26T15:16:45;27.40;99.90
20654;DHT22;21083;50.898;4.902;2023-06-26T15:19:13;27.50;99.90
20654;DHT22;21083;50.898;4.902;2023-06-26T15:21:40;27.30;99.90
20654;DHT22;21083;50.898;4.902;2023-06-26T15:24:07;27.20;99.90
20654;DHT22;21083;50.898;4.902;2023-06-26T15:26:34;27.20;99.90
20654;DHT22;21083;50.898;4.902;2023-06-26T15:29:02;27.40;99.90
20654;DHT22;21083;50.898;4.902;2023-06-26T15:31:29;27.30;99.90
20654;DHT22;21083;50.898;4.902;2023-06-26T15:33:57;27.00;99.90